Time;durP1;ratioP1;P1;durP2;ratioP2;P2;SDS_P1;SDS_P2;PMS_P1;PMS_P2;Temp;Humidity;BMP_temperature;BMP_pressure;BME280_temperature;BME280_humidity;BME280_pressure;Samples;Min_cycle;Max_cycle;Signal;HPM_P1;HPM_P2
2023/08/19 05:23:43;;;;;;;;;;;;;;;7.87;100.00;99446.69;4972642;28;19941;-87
2023/08/19 05:26:08;;;;;;;;;;;;;;;7.76;100.00;99445.28;4975599;28;19926;-87
2023/08/19 05:28:33;;;;;;;;;;;;;;;7.77;100.00;99444.38;4958014;28;19972;-85
2023/08/19 05:30:58;;;;;;;;;;;;;;;8.04;100.00;99452.19;4975433;28;19933;-88
2023/08/19 05:33:24;;;;;;;;;;;;;;;8.55;100.00;99463.44;4975438;28;19961;-86
2023/08/19 05:35:49;;;;;;;;;;;;;;;8.88;100.00;99469.16;4956334;28;20482;-86
2023/08/19 05:38:14;;;;;;;;;;;;;;;9.03;100.00;99474.72;4975185;28;19925;-88
2023/08/19 05:40:40;;;;;;;;;;;;;;;8.36;100.00;99471.22;4975360;28;19918;-88
2023/08/19 05:43:05;;;;;;;;;;;;;;;8.19;100.00;99475.34;4957680;28;19973;-87
2023/08/19 05:45:32;;;;;;;;;;;;;;;8.09;100.00;99476.63;4975164;28;19922;-87
2023/08/19 05:47:57;;;;;;;;;;;;;;;8.08;100.00;99474.91;4974985;28;19918;-89
2023/08/19 05:50:22;;;;;;;;;;;;;;;8.03;100.00;99473.38;4956356;28;20378;-88
2023/08/19 05:52:48;;;;;;;;;;;;;;;8.03;100.00;99474.22;4957432;28;20068;-90
2023/08/19 05:55:13;;;;;;;;;;;;;;;8.53;100.00;99476.72;4974851;28;19921;-89
2023/08/19 05:57:38;;;;;;;;;;;;;;;8.97;100.00;99477.66;4957466;28;19928;-89
2023/08/19 06:00:04;;;;;;;;;;;;;;;9.14;100.00;99474.28;4975082;28;19918;-89
2023/08/19 06:02:33;;;;;;;;;;;;;;;8.93;100.00;99494.53;4974912;28;19922;-92
2023/08/19 06:04:58;;;;;;;;;;;;;;;8.41;100.00;99494.78;4957796;28;20351;-88
2023/08/19 06:07:26;;;;;;;;;;;;;;;8.27;100.00;99490.91;4973281;28;20049;-90
2023/08/19 06:09:51;;;;;;;;;;;;;;;8.18;100.00;99492.13;4973992;28;19928;-90
2023/08/19 06:12:17;;;;;;;;;;;;;;;8.41;100.00;99495.66;4957332;28;19915;-89
2023/08/19 06:14:42;;;;;;;;;;;;;;;8.96;100.00;99486.50;4974635;28;19918;-88
2023/08/19 06:17:07;;;;;;;;;;;;;;;9.25;100.00;99495.84;4957183;28;19977;-87
2023/08/19 06:19:32;;;;;;;;;;;;;;;9.40;100.00;99492.56;4957159;28;20000;-89
2023/08/19 06:21:58;;;;;;;;;;;;;;;8.66;100.00;99498.25;4972798;28;19941;-88
2023/08/19 06:24:23;;;;;;;;;;;;;;;9.08;100.00;99501.84;4957062;28;19965;-89
2023/08/19 06:26:48;;;;;;;;;;;;;;;9.36;100.00;99498.88;4974307;28;20325;-90
2023/08/19 06:29:13;;;;;;;;;;;;;;;9.48;100.00;99494.88;4974711;28;19952;-90
2023/08/19 06:31:39;;;;;;;;;;;;;;;8.78;100.00;99494.25;4956742;28;20312;-89
2023/08/19 06:34:04;;;;;;;;;;;;;;;9.10;100.00;99494.72;4974240;28;19922;-89
2023/08/19 06:36:31;;;;;;;;;;;;;;;9.40;100.00;99491.72;4972693;28;19918;-89
2023/08/19 06:39:01;;;;;;;;;;;;;;;9.56;100.00;99513.06;4974006;28;19918;-89
2023/08/19 06:41:28;;;;;;;;;;;;;;;8.93;100.00;99502.47;4974247;28;19918;-89
2023/08/19 06:43:54;;;;;;;;;;;;;;;9.04;100.00;99506.38;4974198;28;20393;-89
2023/08/19 06:46:19;;;;;;;;;;;;;;;9.42;100.00;99511.84;4957395;28;19929;-89
2023/08/19 06:48:45;;;;;;;;;;;;;;;9.63;100.00;99510.06;4973894;28;20301;-89
2023/08/19 06:51:10;;;;;;;;;;;;;;;9.10;100.00;99507.94;4954786;28;19922;-89
2023/08/19 06:53:36;;;;;;;;;;;;;;;9.03;100.00;99511.72;4973934;28;20017;-89
2023/08/19 06:56:01;;;;;;;;;;;;;;;9.46;100.00;99517.88;4973802;28;19929;-90
2023/08/19 06:58:28;;;;;;;;;;;;;;;9.68;100.00;99522.25;4956527;28;20429;-89
2023/08/19 07:00:59;;;;;;;;;;;;;;;9.67;100.00;99531.09;4973681;28;19925;-89
2023/08/19 07:03:27;;;;;;;;;;;;;;;9.18;100.00;99528.75;4972948;28;19918;-89
2023/08/19 07:35:13;;;;;;;;;;;;;;;9.36;100.00;99527.13;4930993;28;20022;-85
2023/08/19 07:37:38;;;;;;;;;;;;;;;9.54;100.00;99522.84;4945563;29;20356;-84
2023/08/19 07:40:06;;;;;;;;;;;;;;;9.04;100.00;99524.03;4927323;29;19922;-85
2023/08/19 07:42:31;;;;;;;;;;;;;;;8.78;100.00;99528.59;4927473;29;19918;-85
2023/08/19 07:44:56;;;;;;;;;;;;;;;8.65;100.00;99515.00;4944044;29;20355;-85
2023/08/19 07:47:21;;;;;;;;;;;;;;;8.53;100.00;99512.81;4944242;29;19969;-85
2023/08/19 07:49:47;;;;;;;;;;;;;;;8.83;100.00;99523.97;4943428;29;19930;-85
2023/08/19 07:52:12;;;;;;;;;;;;;;;9.34;100.00;99524.53;4944437;29;19929;-85
2023/08/19 07:54:37;;;;;;;;;;;;;;;9.61;100.00;99532.25;4942995;29;19978;-85
2023/08/19 07:57:03;;;;;;;;;;;;;;;9.63;100.00;99525.94;4944057;29;20267;-86
2023/08/19 07:59:28;;;;;;;;;;;;;;;8.97;100.00;99519.94;4943854;29;19919;-87
2023/08/19 08:01:56;;;;;;;;;;;;;;;9.47;100.00;99539.91;4944093;29;19919;-89
2023/08/19 08:04:21;;;;;;;;;;;;;;;9.75;100.00;99550.19;4926162;29;20444;-85
2023/08/19 08:06:50;;;;;;;;;;;;;;;9.86;100.00;99552.34;4944041;29;19925;-85
2023/08/19 08:09:15;;;;;;;;;;;;;;;9.29;100.00;99550.31;4944079;29;19922;-85
2023/08/19 08:11:44;;;;;;;;;;;;;;;8.94;100.00;99554.41;4944369;29;20057;-87
2023/08/19 08:14:09;;;;;;;;;;;;;;;8.84;100.00;99556.53;4943783;29;20058;-85
2023/08/19 08:16:35;;;;;;;;;;;;;;;9.04;100.00;99542.53;4943889;28;20009;-87
2023/08/19 08:19:00;;;;;;;;;;;;;;;9.49;100.00;99564.50;4929670;29;19954;-84
2023/08/19 08:21:25;;;;;;;;;;;;;;;9.66;100.00;99567.28;4930578;29;19919;-85
2023/08/19 08:23:53;;;;;;;;;;;;;;;9.43;100.00;99571.75;4930366;29;20004;-84
2023/08/19 08:26:22;;;;;;;;;;;;;;;9.03;100.00;99578.69;4930451;29;19925;-85
2023/08/19 08:28:47;;;;;;;;;;;;;;;9.48;100.00;99584.81;4930663;29;19929;-84
2023/08/19 08:31:13;;;;;;;;;;;;;;;9.70;100.00;99575.94;4947392;29;19923;-84
2023/08/19 08:33:38;;;;;;;;;;;;;;;9.73;100.00;99578.47;4946014;29;19973;-84
2023/08/19 08:36:03;;;;;;;;;;;;;;;8.98;100.00;99577.13;4946051;29;19930;-84
2023/08/19 08:38:29;;;;;;;;;;;;;;;8.79;100.00;99574.34;4947390;29;20010;-85
2023/08/19 08:40:54;;;;;;;;;;;;;;;8.68;100.00;99565.06;4947206;29;20322;-85
2023/08/19 08:43:20;;;;;;;;;;;;;;;8.59;100.00;99561.91;4947441;29;19918;-84
2023/08/19 08:45:46;;;;;;;;;;;;;;;8.97;100.00;99573.63;4930226;29;20378;-84
2023/08/19 08:48:11;;;;;;;;;;;;;;;9.35;100.00;99568.59;4945620;29;19961;-85
2023/08/19 08:50:37;;;;;;;;;;;;;;;9.57;100.00;99589.72;4930002;29;20398;-86
2023/08/19 08:53:03;;;;;;;;;;;;;;;9.31;100.00;99587.28;4947433;29;19921;-89
2023/08/19 08:55:29;;;;;;;;;;;;;;;8.91;100.00;99600.28;4947283;29;19974;-86
2023/08/19 08:57:54;;;;;;;;;;;;;;;8.69;100.00;99597.63;4947104;29;19937;-89
2023/08/19 09:00:20;;;;;;;;;;;;;;;8.59;100.00;99590.97;4946460;29;19918;-87
2023/08/19 09:02:49;;;;;;;;;;;;;;;8.57;100.00;99603.34;4928444;29;19927;-88
2023/08/19 09:05:15;;;;;;;;;;;;;;;9.18;100.00;99600.13;4930226;29;19974;-88
2023/08/19 09:07:41;;;;;;;;;;;;;;;9.44;100.00;99601.72;4937717;29;19986;-85
2023/08/19 09:10:13;;;;;;;;;;;;;;;9.64;100.00;99614.97;4946973;29;19930;-85
2023/08/19 09:12:43;;;;;;;;;;;;;;;9.13;100.00;99623.25;4937432;29;19922;-85
2023/08/19 09:15:10;;;;;;;;;;;;;;;9.48;100.00;99627.13;4946810;29;20033;-86
2023/08/19 09:17:35;;;;;;;;;;;;;;;9.76;100.00;99625.97;4929109;29;20379;-85
2023/08/19 09:20:03;;;;;;;;;;;;;;;9.89;100.00;99616.59;4944488;29;19970;-87
2023/08/19 09:22:29;;;;;;;;;;;;;;;9.35;100.00;99617.94;4946575;29;20449;-85
2023/08/19 09:24:54;;;;;;;;;;;;;;;9.38;100.00;99615.19;4945487;29;20034;-85
2023/08/19 09:27:26;;;;;;;;;;;;;;;9.75;100.00;99624.25;4946371;28;19929;-84
2023/08/19 09:29:52;;;;;;;;;;;;;;;9.92;100.00;99627.03;4946335;29;19919;-85
2023/08/19 09:32:33;;;;;;;;;;;;;;;9.67;100.00;99615.75;4946266;29;19934;-83
2023/08/19 09:35:04;;;;;;;;;;;;;;;9.62;100.00;99608.00;4944851;29;19959;-85
2023/08/19 09:37:30;;;;;;;;;;;;;;;9.84;100.00;99620.34;4946128;29;19926;-85
2023/08/19 09:39:56;;;;;;;;;;;;;;;10.09;100.00;99612.22;4945420;29;19922;-85
2023/08/19 09:42:21;;;;;;;;;;;;;;;9.58;100.00;99615.22;4928979;29;19918;-85
2023/08/19 09:44:46;;;;;;;;;;;;;;;9.59;100.00;99609.03;4929594;29;19990;-85
2023/08/19 09:47:12;;;;;;;;;;;;;;;9.89;100.00;99610.41;4946113;29;19969;-85
2023/08/19 09:49:37;;;;;;;;;;;;;;;10.11;100.00;99620.94;4944673;29;19923;-85
2023/08/19 09:52:02;;;;;;;;;;;;;;;9.58;100.00;99612.56;4946103;29;19920;-85
2023/08/19 09:54:28;;;;;;;;;;;;;;;9.65;100.00;99629.03;4946593;29;20370;-85
2023/08/19 09:56:57;;;;;;;;;;;;;;;9.93;100.00;99625.25;4945897;29;20009;-86
2023/08/19 09:59:23;;;;;;;;;;;;;;;10.06;100.00;99633.53;4928585;29;19918;-85
2023/08/19 10:01:49;;;;;;;;;;;;;;;9.45;100.00;99636.03;4946174;29;20383;-85
2023/08/19 10:04:14;;;;;;;;;;;;;;;9.07;100.00;99635.75;4944542;29;19919;-85
2023/08/19 10:06:43;;;;;;;;;;;;;;;8.94;100.00;99621.31;4945762;29;19922;-85
2023/08/19 10:09:09;;;;;;;;;;;;;;;8.78;100.00;99620.19;4946163;29;20001;-85
2023/08/19 10:11:35;;;;;;;;;;;;;;;8.78;100.00;99615.75;4945644;29;19918;-85
2023/08/19 10:14:03;;;;;;;;;;;;;;;9.27;100.00;99624.41;4945686;29;19923;-85
2023/08/19 10:16:31;;;;;;;;;;;;;;;9.62;100.00;99626.53;4944488;29;19966;-86
2023/08/19 10:18:57;;;;;;;;;;;;;;;9.73;100.00;99637.56;4927486;29;19918;-87
2023/08/19 10:21:25;;;;;;;;;;;;;;;9.18;100.00;99635.34;4945721;29;20271;-89
2023/08/19 10:23:52;;;;;;;;;;;;;;;9.56;100.00;99634.75;4944965;29;19922;-86
2023/08/19 10:26:17;;;;;;;;;;;;;;;9.82;100.00;99647.72;4945512;29;19973;-85
2023/08/19 10:29:00;;;;;;;;;;;;;;;9.99;100.00;99647.03;4944815;29;19919;-85
2023/08/19 10:31:26;;;;;;;;;;;;;;;9.20;100.00;99641.44;4928164;29;19986;-85
2023/08/19 10:33:53;;;;;;;;;;;;;;;9.53;100.00;99648.94;4944129;29;19923;-85
2023/08/19 10:36:19;;;;;;;;;;;;;;;9.94;100.00;99643.72;4944927;29;19938;-85
2023/08/19 10:38:50;;;;;;;;;;;;;;;10.05;100.00;99647.69;4945191;29;20361;-84
2023/08/19 10:41:18;;;;;;;;;;;;;;;9.53;100.00;99651.59;4944610;29;19926;-85
2023/08/19 10:44:02;;;;;;;;;;;;;;;9.50;100.00;99654.34;4945063;29;19978;-85
2023/08/19 10:46:31;;;;;;;;;;;;;;;9.91;100.00;99657.09;4927805;29;19977;-86
2023/08/19 10:48:57;;;;;;;;;;;;;;;10.20;100.00;99672.66;4943858;29;19974;-85
2023/08/19 10:51:42;;;;;;;;;;;;;;;9.88;100.00;99672.25;4944686;29;19923;-85
2023/08/19 10:54:07;;;;;;;;;;;;;;;9.81;100.00;99672.50;4927495;29;20272;-86
2023/08/19 10:56:32;;;;;;;;;;;;;;;10.13;100.00;99669.38;4944901;29;20216;-86
2023/08/19 10:58:58;;;;;;;;;;;;;;;10.29;100.00;99667.81;4927632;29;19922;-85
2023/08/19 11:01:28;;;;;;;;;;;;;;;9.82;100.00;99668.03;4944938;29;19923;-91
2023/08/19 11:03:56;;;;;;;;;;;;;;;10.10;100.00;99675.69;4943849;29;20005;-86
2023/08/19 11:06:21;;;;;;;;;;;;;;;10.27;100.00;99679.41;4943536;29;19941;-85
2023/08/19 11:08:47;;;;;;;;;;;;;;;10.36;100.00;99684.34;4944704;29;20366;-85
2023/08/19 11:11:16;;;;;;;;;;;;;;;9.71;100.00;99694.09;4943647;29;20302;-85
2023/08/19 11:13:42;;;;;;;;;;;;;;;10.08;100.00;99690.75;4944942;29;19977;-85
2023/08/19 11:16:07;;;;;;;;;;;;;;;10.28;100.00;99697.88;4944768;29;19931;-86
2023/08/19 11:18:38;;;;;;;;;;;;;;;10.30;100.00;99696.00;4925758;29;19918;-85
2023/08/19 11:21:03;;;;;;;;;;;;;;;9.78;100.00;99699.06;4943295;29;19926;-85
2023/08/19 11:23:28;;;;;;;;;;;;;;;10.15;100.00;99692.25;4944384;29;19918;-85
2023/08/19 11:25:54;;;;;;;;;;;;;;;10.24;100.00;99698.91;4944973;29;19918;-85
2023/08/19 11:28:22;;;;;;;;;;;;;;;10.00;100.00;99701.69;4927157;29;19923;-88
2023/08/19 11:30:48;;;;;;;;;;;;;;;9.77;100.00;99717.66;4927596;29;19934;-85
2023/08/19 11:33:16;;;;;;;;;;;;;;;10.15;100.00;99712.56;4940726;29;19919;-85
2023/08/19 11:35:42;;;;;;;;;;;;;;;10.35;100.00;99725.84;4944208;29;19926;-87
2023/08/19 11:38:17;;;;;;;;;;;;;;;9.90;100.00;99728.59;4944402;29;20346;-85
2023/08/19 11:40:43;;;;;;;;;;;;;;;10.05;100.00;99729.75;4944188;29;19953;-85
2023/08/19 11:43:09;;;;;;;;;;;;;;;10.26;100.00;99731.50;4944178;29;19969;-90
2023/08/19 11:45:37;;;;;;;;;;;;;;;10.27;100.00;99735.84;4926794;29;20378;-85
2023/08/19 11:48:03;;;;;;;;;;;;;;;9.79;100.00;99735.19;4943064;29;19958;-85
2023/08/19 11:50:34;;;;;;;;;;;;;;;10.19;100.00;99735.31;4944226;29;20413;-85
2023/08/19 11:53:00;;;;;;;;;;;;;;;10.33;100.00;99742.72;4947796;29;19919;-85
2023/08/19 11:55:25;;;;;;;;;;;;;;;9.93;100.00;99737.28;4948414;29;19925;-85
2023/08/19 11:57:52;;;;;;;;;;;;;;;9.82;100.00;99747.44;4948525;29;19923;-85
2023/08/19 12:00:17;;;;;;;;;;;;;;;10.23;100.00;99746.63;4947810;29;20007;-85
2023/08/19 12:02:44;;;;;;;;;;;;;;;10.39;100.00;99747.75;4947087;29;20018;-88
2023/08/19 12:05:10;;;;;;;;;;;;;;;9.79;100.00;99748.41;4930782;29;19958;-87
2023/08/19 12:07:35;;;;;;;;;;;;;;;9.44;100.00;99755.09;4948182;29;19980;-86
2023/08/19 12:10:01;;;;;;;;;;;;;;;9.32;100.00;99748.50;4948263;29;19995;-86
2023/08/19 12:12:28;;;;;;;;;;;;;;;9.73;100.00;99755.72;4930194;29;19923;-85
2023/08/19 12:14:58;;;;;;;;;;;;;;;10.10;100.00;99762.19;4947668;29;19943;-90
2023/08/19 12:17:23;;;;;;;;;;;;;;;10.19;100.00;99767.09;4930502;29;19946;-86
2023/08/19 12:19:48;;;;;;;;;;;;;;;9.69;100.00;99767.38;4929771;29;19919;-87
2023/08/19 12:22:14;;;;;;;;;;;;;;;9.87;100.00;99771.91;4947445;29;19919;-85
2023/08/19 12:24:42;;;;;;;;;;;;;;;11.99;100.00;99787.38;4930202;29;19978;-84
2023/08/19 12:27:08;;;;;;;;;;;;;;;11.20;100.00;99791.03;4930806;29;19918;-84
2023/08/19 12:29:33;;;;;;;;;;;;;;;10.35;100.00;99786.78;4930523;29;19965;-86
2023/08/19 12:31:59;;;;;;;;;;;;;;;10.48;100.00;99783.59;4947234;29;19915;-85
2023/08/19 12:34:24;;;;;;;;;;;;;;;10.63;100.00;99784.72;4946174;29;20009;-84
2023/08/19 12:36:49;;;;;;;;;;;;;;;10.75;100.00;99780.69;4947194;29;20005;-84
2023/08/19 12:39:14;;;;;;;;;;;;;;;10.00;100.00;99783.75;4938147;29;19919;-84
2023/08/19 12:41:42;;;;;;;;;;;;;;;10.33;100.00;99787.75;4937903;29;19923;-85
2023/08/19 12:44:08;;;;;;;;;;;;;;;10.56;100.00;99780.59;4947553;29;19922;-86
2023/08/19 12:46:40;;;;;;;;;;;;;;;10.66;100.00;99787.25;4930010;29;19965;-86
2023/08/19 12:49:05;;;;;;;;;;;;;;;10.09;100.00;99782.50;4946002;29;20013;-85
2023/08/19 12:51:31;;;;;;;;;;;;;;;10.49;100.00;99788.81;4946991;29;20025;-88
2023/08/19 12:53:56;;;;;;;;;;;;;;;10.63;100.00;99796.19;4931633;29;19919;-85
2023/08/19 12:56:21;;;;;;;;;;;;;;;10.53;100.00;99805.47;4929757;29;19922;-85
2023/08/19 12:58:47;;;;;;;;;;;;;;;10.23;100.00;99816.38;4947050;29;19985;-85
2023/08/19 13:01:12;;;;;;;;;;;;;;;10.50;100.00;99814.41;4946998;29;19943;-85
2023/08/19 13:03:37;;;;;;;;;;;;;;;10.76;100.00;99819.50;4944992;28;19923;-85
2023/08/19 13:06:03;;;;;;;;;;;;;;;10.16;100.00;99820.19;4946767;29;19950;-85
2023/08/19 13:08:28;;;;;;;;;;;;;;;9.74;100.00;99821.81;4946734;29;19918;-84
2023/08/19 13:10:53;;;;;;;;;;;;;;;9.55;100.00;99818.16;4946624;29;19927;-85
2023/08/19 13:13:19;;;;;;;;;;;;;;;10.01;100.00;99816.38;4929964;29;19918;-84
2023/08/19 13:15:44;;;;;;;;;;;;;;;10.27;100.00;99817.94;4929720;29;19922;-84
2023/08/19 13:18:11;;;;;;;;;;;;;;;10.46;100.00;99827.81;4945375;29;19926;-88
2023/08/19 13:20:36;;;;;;;;;;;;;;;9.93;100.00;99832.56;4947592;29;19926;-90
2023/08/19 13:23:02;;;;;;;;;;;;;;;10.22;100.00;99827.03;4944955;29;19918;-83
2023/08/19 13:25:27;;;;;;;;;;;;;;;10.47;100.00;99824.25;4946339;29;19924;-84
2023/08/19 13:27:52;;;;;;;;;;;;;;;10.16;100.00;99828.13;4947086;29;20313;-84
2023/08/19 13:30:18;;;;;;;;;;;;;;;9.66;100.00;99823.91;4946522;29;20289;-84
2023/08/19 13:32:43;;;;;;;;;;;;;;;9.42;100.00;99823.06;4945570;29;20363;-84
2023/08/19 13:35:08;;;;;;;;;;;;;;;9.33;100.00;99820.75;4945459;29;19923;-84
2023/08/19 13:37:34;;;;;;;;;;;;;;;9.90;100.00;99827.38;4946786;29;19929;-83
2023/08/19 13:39:59;;;;;;;;;;;;;;;10.18;100.00;99824.50;4946447;29;19919;-84
2023/08/19 13:42:25;;;;;;;;;;;;;;;10.20;100.00;99821.78;4946213;29;19939;-83
2023/08/19 13:44:50;;;;;;;;;;;;;;;9.64;100.00;99826.63;4946371;29;19919;-84
2023/08/19 13:47:15;;;;;;;;;;;;;;;9.33;100.00;99823.41;4946556;29;20363;-83
2023/08/19 13:49:40;;;;;;;;;;;;;;;9.59;100.00;99825.94;4945055;29;19922;-84
2023/08/19 13:52:09;;;;;;;;;;;;;;;9.99;100.00;99832.31;4946123;29;20362;-84
2023/08/19 13:54:34;;;;;;;;;;;;;;;10.30;100.00;99838.16;4946497;29;19918;-85
2023/08/19 13:57:00;;;;;;;;;;;;;;;9.78;100.00;99836.69;4944837;29;19918;-84
2023/08/19 13:59:25;;;;;;;;;;;;;;;9.36;100.00;99832.06;4945761;29;19918;-85
2023/08/19 14:01:50;;;;;;;;;;;;;;;9.82;100.00;99832.13;4945683;29;20425;-84
2023/08/19 14:04:15;;;;;;;;;;;;;;;10.15;100.00;99832.56;4945143;29;20041;-85
2023/08/19 14:06:41;;;;;;;;;;;;;;;10.35;100.00;99831.81;4943519;29;19930;-85
2023/08/19 14:09:06;;;;;;;;;;;;;;;9.87;100.00;99827.50;4944836;29;19941;-84
2023/08/19 14:11:31;;;;;;;;;;;;;;;9.89;100.00;99830.97;4945615;29;19919;-84
2023/08/19 14:13:56;;;;;;;;;;;;;;;10.25;100.00;99837.50;4945824;28;19923;-84
2023/08/19 14:16:22;;;;;;;;;;;;;;;10.43;100.00;99836.75;4944946;29;19926;-84
2023/08/19 14:18:47;;;;;;;;;;;;;;;9.95;100.00;99838.63;4944089;29;19949;-85
2023/08/19 14:21:13;;;;;;;;;;;;;;;9.98;100.00;99843.81;4945476;29;19919;-83
2023/08/19 14:23:38;;;;;;;;;;;;;;;10.36;100.00;99843.25;4945251;29;19930;-84
2023/08/19 14:26:03;;;;;;;;;;;;;;;10.48;100.00;99848.03;4945623;29;20405;-84
2023/08/19 14:28:29;;;;;;;;;;;;;;;9.81;100.00;99851.56;4945701;29;20586;-84
2023/08/19 14:30:54;;;;;;;;;;;;;;;9.52;100.00;99850.03;4945388;29;20009;-83
2023/08/19 14:33:19;;;;;;;;;;;;;;;9.38;100.00;99859.34;4943918;29;19958;-83
2023/08/19 14:35:45;;;;;;;;;;;;;;;9.31;100.00;99846.41;4944987;29;20020;-84
2023/08/19 14:38:10;;;;;;;;;;;;;;;9.26;100.00;99844.78;4945392;29;20386;-84
2023/08/19 14:40:36;;;;;;;;;;;;;;;9.89;100.00;99860.09;4945110;29;19950;-83
2023/08/19 14:43:02;;;;;;;;;;;;;;;10.08;100.00;99865.50;4945175;29;20260;-90
2023/08/19 14:45:27;;;;;;;;;;;;;;;9.97;100.00;99865.94;4945406;29;19918;-84
2023/08/19 14:47:53;;;;;;;;;;;;;;;9.39;100.00;99860.19;4943839;29;19938;-83
2023/08/19 14:50:18;;;;;;;;;;;;;;;9.27;100.00;99862.38;4944728;29;19990;-83
2023/08/19 14:52:43;;;;;;;;;;;;;;;9.18;100.00;99860.06;4944876;29;20005;-84
2023/08/19 14:55:08;;;;;;;;;;;;;;;9.12;100.00;99854.13;4945355;29;19918;-84
2023/08/19 14:57:34;;;;;;;;;;;;;;;8.98;100.00;99857.25;4944854;29;20001;-84
2023/08/19 14:59:59;;;;;;;;;;;;;;;9.02;100.00;99858.88;4944372;29;19923;-84
2023/08/19 15:02:25;;;;;;;;;;;;;;;9.13;100.00;99859.38;4944797;29;19957;-83
2023/08/19 15:04:50;;;;;;;;;;;;;;;9.68;100.00;99866.19;4926681;29;19919;-83
2023/08/19 15:07:16;;;;;;;;;;;;;;;9.93;100.00;99872.25;4944799;29;19942;-84
2023/08/19 15:09:41;;;;;;;;;;;;;;;9.85;100.00;99878.78;4944681;29;19976;-84
2023/08/19 15:12:07;;;;;;;;;;;;;;;9.27;100.00;99872.94;4944854;29;19926;-84
2023/08/19 15:14:32;;;;;;;;;;;;;;;9.20;100.00;99878.50;4944917;29;19962;-83
2023/08/19 15:16:57;;;;;;;;;;;;;;;9.27;100.00;99878.25;4944603;29;19922;-85
2023/08/19 15:19:22;;;;;;;;;;;;;;;9.75;100.00;99873.84;4943251;29;20021;-84
2023/08/19 15:21:48;;;;;;;;;;;;;;;10.08;100.00;99886.66;4944727;29;19922;-85
2023/08/19 15:24:13;;;;;;;;;;;;;;;10.04;100.00;99885.09;4944961;29;20378;-85
2023/08/19 15:26:38;;;;;;;;;;;;;;;9.58;100.00;99877.09;4946086;28;19919;-88
2023/08/19 15:29:04;;;;;;;;;;;;;;;9.83;100.00;99886.78;4944407;29;20414;-84
2023/08/19 15:31:32;;;;;;;;;;;;;;;10.11;100.00;99893.66;4944366;29;20054;-84
2023/08/19 15:33:58;;;;;;;;;;;;;;;10.34;100.00;99898.94;4943215;29;19932;-87
2023/08/19 15:36:23;;;;;;;;;;;;;;;9.71;100.00;99888.09;4944081;29;19922;-87
2023/08/19 15:39:00;;;;;;;;;;;;;;;9.66;100.00;99887.41;4944488;29;19925;-93
2023/08/19 15:41:26;;;;;;;;;;;;;;;10.10;100.00;99889.25;4944477;29;19922;-85
2023/08/19 15:43:51;;;;;;;;;;;;;;;10.30;100.00;99881.38;4944335;29;20399;-84
2023/08/19 15:46:16;;;;;;;;;;;;;;;9.91;100.00;99892.63;4944238;29;19990;-85
2023/08/19 15:48:43;;;;;;;;;;;;;;;9.59;100.00;99894.72;4942769;29;20146;-85
2023/08/19 15:51:09;;;;;;;;;;;;;;;10.13;100.00;99889.13;4927154;29;20366;-85
2023/08/19 15:53:34;;;;;;;;;;;;;;;10.31;100.00;99891.06;4943892;29;20333;-85
2023/08/19 15:55:59;;;;;;;;;;;;;;;9.99;100.00;99895.00;4927016;29;20008;-85
2023/08/19 15:58:24;;;;;;;;;;;;;;;9.49;100.00;99893.31;4943895;29;20025;-85
2023/08/19 16:00:50;;;;;;;;;;;;;;;9.40;100.00;99896.31;4943902;29;19970;-85
2023/08/19 16:03:15;;;;;;;;;;;;;;;9.21;100.00;99885.53;4942677;29;20299;-85
2023/08/19 16:05:40;;;;;;;;;;;;;;;9.12;100.00;99878.78;4944147;29;19919;-86
2023/08/19 16:08:09;;;;;;;;;;;;;;;9.48;100.00;99886.31;4944430;29;20285;-85
2023/08/19 16:10:35;;;;;;;;;;;;;;;9.93;100.00;99880.19;4943829;29;20363;-85
2023/08/19 16:13:00;;;;;;;;;;;;;;;10.11;100.00;99891.84;4943794;29;19977;-86
2023/08/19 16:15:25;;;;;;;;;;;;;;;9.68;100.00;99887.34;4944185;29;19958;-85
2023/08/19 16:17:51;;;;;;;;;;;;;;;9.73;100.00;99888.91;4942715;29;19925;-85
2023/08/19 16:20:16;;;;;;;;;;;;;;;10.09;100.00;99890.19;4934713;29;20362;-85
2023/08/19 16:22:42;;;;;;;;;;;;;;;10.30;100.00;99901.72;4943748;29;20367;-85
2023/08/19 16:25:07;;;;;;;;;;;;;;;9.63;100.00;99914.81;4943730;29;20341;-85
2023/08/19 16:27:32;;;;;;;;;;;;;;;9.32;100.00;99911.56;4943911;29;19918;-85
2023/08/19 16:30:00;;;;;;;;;;;;;;;9.14;100.00;99913.94;4944067;29;19933;-85
2023/08/19 16:32:25;;;;;;;;;;;;;;;9.07;100.00;99907.16;4944289;29;20017;-85
2023/08/19 16:34:52;;;;;;;;;;;;;;;8.97;100.00;99911.06;4942513;29;20038;-85
2023/08/19 16:37:18;;;;;;;;;;;;;;;9.20;100.00;99903.16;4933823;29;19949;-86
2023/08/19 16:39:43;;;;;;;;;;;;;;;9.68;100.00;99908.50;4947277;29;20366;-85
2023/08/19 16:42:09;;;;;;;;;;;;;;;9.94;100.00;99916.34;4947601;29;19961;-84
2023/08/19 16:44:34;;;;;;;;;;;;;;;9.59;100.00;99915.88;4930077;29;19919;-85
2023/08/19 16:46:59;;;;;;;;;;;;;;;9.16;100.00;99904.19;4946979;29;19923;-84
2023/08/19 16:49:24;;;;;;;;;;;;;;;9.06;100.00;99901.03;4929082;29;19969;-84
2023/08/19 16:51:50;;;;;;;;;;;;;;;9.33;100.00;99903.59;4947518;29;19923;-85
2023/08/19 16:54:15;;;;;;;;;;;;;;;9.83;100.00;99902.66;4947035;29;19923;-84
2023/08/19 16:56:41;;;;;;;;;;;;;;;10.10;100.00;99878.66;4946969;29;19922;-84
2023/08/19 16:59:06;;;;;;;;;;;;;;;9.76;100.00;99874.69;4929974;29;19923;-84
2023/08/19 17:01:31;;;;;;;;;;;;;;;9.37;100.00;99864.69;4947328;29;20362;-85
2023/08/19 17:03:56;;;;;;;;;;;;;;;9.82;100.00;99869.16;4945625;29;19919;-85
2023/08/19 17:06:22;;;;;;;;;;;;;;;10.17;100.00;99865.13;4929746;29;19925;-85
2023/08/19 17:08:49;;;;;;;;;;;;;;;10.18;100.00;99861.56;4947168;29;19965;-85
2023/08/19 17:11:14;;;;;;;;;;;;;;;9.51;100.00;99859.75;4946872;29;19981;-85
2023/08/19 17:13:40;;;;;;;;;;;;;;;10.04;100.00;99868.34;4941550;29;19922;-83
2023/08/19 17:16:05;;;;;;;;;;;;;;;10.21;100.00;99876.47;4945343;29;19927;-82
2023/08/19 17:18:30;;;;;;;;;;;;;;;10.32;100.00;99878.69;4927380;29;20016;-83
2023/08/19 17:20:57;;;;;;;;;;;;;;;9.66;100.00;99889.19;4928452;29;19930;-84
2023/08/19 17:23:23;;;;;;;;;;;;;;;9.99;100.00;99897.63;4945095;29;19923;-84
2023/08/19 17:25:48;;;;;;;;;;;;;;;10.34;100.00;99909.53;4945901;29;20405;-84
2023/08/19 17:28:13;;;;;;;;;;;;;;;10.30;100.00;99910.53;4925911;29;19918;-90
2023/08/19 17:30:39;;;;;;;;;;;;;;;9.71;100.00;99914.56;4927149;29;20054;-82
2023/08/19 17:33:04;;;;;;;;;;;;;;;9.70;100.00;99919.91;4945017;29;20800;-84
2023/08/19 17:35:32;;;;;;;;;;;;;;;19.66;100.00;99927.00;4944287;29;19923;-84
2023/08/19 17:37:58;;;;;;;;;;;;;;;14.97;100.00;99929.44;4944697;29;19923;-85
2023/08/19 17:40:24;;;;;;;;;;;;;;;15.61;100.00;99930.03;4945085;29;20030;-86
2023/08/19 17:42:49;;;;;;;;;;;;;;;12.01;100.00;99936.88;4943651;29;19927;-87
2023/08/19 17:45:15;;;;;;;;;;;;;;;11.21;100.00;99938.59;4926867;29;19923;-86
2023/08/19 17:47:54;;;;;;;;;;;;;;;10.08;100.00;99938.75;4926113;29;19925;-90
2023/08/19 17:50:20;;;;;;;;;;;;;;;9.62;100.00;99942.22;4936309;29;19930;-92
2023/08/19 17:52:46;;;;;;;;;;;;;;;9.29;100.00;99938.16;4939915;29;19933;-85
2023/08/19 17:55:12;;;;;;;;;;;;;;;9.18;100.00;99936.72;4944459;29;19923;-86
2023/08/19 17:57:37;;;;;;;;;;;;;;;9.46;100.00;99938.38;4945109;29;20283;-87
2023/08/19 18:00:03;;;;;;;;;;;;;;;9.67;100.00;99938.53;4945425;29;20359;-86
2023/08/19 18:02:29;;;;;;;;;;;;;;;9.78;100.00;99949.56;4946019;29;20013;-86
2023/08/19 18:04:57;;;;;;;;;;;;;;;9.26;100.00;99953.19;4943231;29;20016;-87
2023/08/19 18:07:22;;;;;;;;;;;;;;;8.94;100.00;99942.88;4945571;29;19927;-86
2023/08/19 18:09:48;;;;;;;;;;;;;;;8.95;100.00;99939.28;4944499;29;20017;-86
2023/08/19 18:12:13;;;;;;;;;;;;;;;9.34;100.00;99942.34;4940806;29;19918;-88
2023/08/19 18:14:38;;;;;;;;;;;;;;;9.54;100.00;99933.72;4946061;29;20425;-86
2023/08/19 18:17:04;;;;;;;;;;;;;;;9.58;100.00;99937.09;4934647;29;19927;-90
2023/08/19 18:19:30;;;;;;;;;;;;;;;9.05;100.00;99935.44;4944003;29;19923;-85
2023/08/19 18:21:57;;;;;;;;;;;;;;;9.01;100.00;99944.38;4943455;29;20371;-92
2023/08/19 18:24:23;;;;;;;;;;;;;;;9.35;100.00;99953.78;4945569;29;19930;-86
2023/08/19 18:26:49;;;;;;;;;;;;;;;9.62;100.00;99963.38;4944180;29;19927;-85
2023/08/19 18:29:14;;;;;;;;;;;;;;;9.53;100.00;99952.28;4943013;29;19930;-85